createdAt,value
2018-06-18T18:20:53.834Z,23.97
2018-06-18T18:21:53.794Z,23.55
2018-06-18T18:22:53.786Z,23.37
2018-06-18T18:23:53.753Z,22.97
2018-06-18T18:24:53.753Z,22.89
2018-06-18T18:25:53.758Z,22.75
2018-06-18T18:26:53.699Z,22.76
2018-06-18T18:27:53.667Z,22.61
2018-06-18T18:28:53.655Z,22.49
2018-06-18T18:29:53.633Z,22.38
2018-06-18T18:30:53.644Z,22.24
2018-06-18T18:31:53.584Z,22.15
2018-06-18T18:32:53.573Z,22.07
2018-06-18T18:33:53.644Z,21.90
2018-06-18T18:34:53.530Z,21.83
2018-06-18T18:35:53.502Z,21.83
2018-06-18T18:36:53.497Z,21.85
2018-06-18T18:37:53.491Z,21.83
2018-06-18T18:38:53.458Z,21.76
2018-06-18T18:39:53.461Z,21.64
2018-06-18T18:40:53.421Z,21.64
2018-06-18T18:41:53.415Z,21.62
2018-06-18T18:42:53.381Z,21.61
2018-06-18T18:43:53.385Z,21.49
2018-06-18T18:44:53.341Z,21.48
2018-06-18T18:45:53.370Z,21.49
2018-06-18T18:46:53.292Z,21.48
2018-06-18T18:47:53.310Z,21.46
2018-06-18T18:48:53.276Z,21.38
2018-06-18T18:49:53.241Z,21.36
2018-06-18T18:50:53.196Z,21.23
2018-06-18T18:51:53.281Z,21.31
2018-06-18T18:52:53.337Z,21.19
2018-06-18T18:53:53.484Z,21.21
2018-06-18T18:54:53.115Z,21.12
2018-06-18T18:55:53.132Z,21.11
2018-06-18T18:56:53.160Z,21.09
2018-06-18T18:57:53.094Z,21.18
2018-06-18T18:58:53.038Z,21.08
2018-06-18T18:59:52.996Z,21.04
2018-06-18T19:00:52.976Z,21.03
2018-06-18T19:01:53.003Z,21.08
2018-06-18T19:02:52.938Z,21.04
2018-06-18T19:03:52.920Z,21.04
2018-06-18T19:04:52.934Z,21.13
2018-06-18T19:05:52.907Z,20.97
2018-06-18T19:06:52.932Z,21.16
2018-06-18T19:07:52.818Z,21.06
2018-06-18T19:08:52.805Z,21.11
2018-06-18T19:09:52.786Z,21.18
2018-06-18T19:10:52.760Z,21.03
2018-06-18T19:11:52.915Z,21.15
2018-06-18T19:12:52.799Z,21.16
2018-06-18T19:13:52.706Z,21.11
2018-06-18T19:14:52.704Z,21.21
2018-06-18T19:15:52.645Z,21.15
2018-06-18T19:16:52.629Z,21.15
2018-06-18T19:17:52.739Z,21.12
2018-06-18T19:18:52.608Z,21.13
2018-06-18T19:19:52.575Z,21.08
2018-06-18T19:20:52.536Z,21.09
2018-06-18T19:21:52.515Z,21.09
2018-06-18T19:22:52.509Z,20.97
2018-06-18T19:23:52.470Z,21.01
2018-06-18T19:24:52.447Z,21.09
2018-06-18T19:25:52.443Z,20.97
2018-06-18T19:26:52.466Z,20.93
2018-06-18T19:27:52.436Z,20.96
2018-06-18T19:28:52.382Z,20.94
2018-06-18T19:29:52.334Z,20.82
2018-06-18T19:30:52.347Z,20.79
2018-06-18T19:31:52.354Z,20.78
2018-06-18T19:32:52.305Z,20.78
2018-06-18T19:33:52.359Z,20.63
2018-06-18T19:34:52.896Z,20.56
2018-06-18T19:35:52.205Z,20.51
2018-06-18T19:36:52.188Z,20.42
2018-06-18T19:37:52.166Z,20.49
2018-06-18T19:38:52.143Z,20.37
2018-06-18T19:39:52.141Z,20.41
2018-06-18T19:40:52.099Z,20.29
2018-06-18T19:41:52.067Z,20.34
2018-06-18T19:42:52.051Z,20.27
2018-06-18T19:43:52.032Z,20.22
2018-06-18T19:44:52.014Z,20.20
2018-06-18T19:45:51.985Z,20.16
2018-06-18T19:46:51.991Z,20.07
2018-06-18T19:47:51.940Z,20.01
2018-06-18T19:48:51.969Z,19.97
2018-06-18T19:49:51.905Z,20.01
2018-06-18T19:50:51.922Z,20.01
2018-06-18T19:51:51.848Z,19.98
2018-06-18T19:52:51.852Z,19.92
2018-06-18T19:53:51.795Z,19.93
2018-06-18T19:54:51.802Z,19.92
2018-06-18T19:55:51.759Z,19.93
2018-06-18T19:56:51.737Z,19.90
2018-06-18T19:57:51.724Z,19.83
2018-06-18T19:58:51.718Z,19.74
2018-06-18T19:59:51.659Z,19.75
2018-06-18T20:00:51.692Z,19.75
2018-06-18T20:01:51.696Z,19.85
2018-06-18T20:02:51.648Z,19.75
2018-06-18T20:03:51.595Z,19.70
2018-06-18T20:04:51.561Z,19.75
2018-06-18T20:05:51.604Z,19.68
2018-06-18T20:06:51.535Z,19.60
2018-06-18T20:07:51.518Z,19.57
2018-06-18T20:08:51.572Z,19.56
2018-06-18T20:09:51.435Z,19.63
2018-06-18T20:10:51.419Z,19.56
2018-06-18T20:11:51.394Z,19.60
2018-06-18T20:12:51.414Z,19.49
2018-06-18T20:13:51.402Z,19.43
2018-06-18T20:14:51.325Z,19.46
2018-06-18T20:15:51.332Z,19.35
2018-06-18T20:16:51.279Z,19.42
2018-06-18T20:17:52.809Z,19.38
2018-06-18T20:18:51.237Z,19.28
2018-06-18T20:19:51.207Z,19.34
2018-06-18T20:20:51.191Z,19.25
2018-06-18T20:21:51.160Z,19.30
2018-06-18T20:22:51.144Z,19.34
2018-06-18T20:23:51.118Z,19.24
2018-06-18T20:24:51.091Z,19.25
2018-06-18T20:25:51.072Z,19.20
2018-06-18T20:26:51.053Z,19.19
2018-06-18T20:27:51.029Z,19.19
2018-06-18T20:28:51.002Z,19.17
2018-06-18T20:29:50.981Z,19.17
2018-06-18T20:30:50.954Z,19.19
2018-06-18T20:31:50.960Z,19.16
2018-06-18T20:32:50.916Z,19.16
2018-06-18T20:33:50.884Z,19.12
2018-06-18T20:34:50.857Z,19.07
2018-06-18T20:35:50.844Z,19.13
2018-06-18T20:36:50.819Z,19.07
2018-06-18T20:37:50.832Z,19.00
2018-06-18T20:38:50.774Z,19.10
2018-06-18T20:39:50.754Z,19.15
2018-06-18T20:40:51.382Z,19.15
2018-06-18T20:41:50.709Z,19.09
2018-06-18T20:42:50.676Z,19.12
2018-06-18T20:43:50.651Z,19.09
2018-06-18T20:44:50.637Z,19.06
2018-06-18T20:45:50.612Z,19.06
2018-06-18T20:46:50.587Z,19.17
2018-06-18T20:47:50.568Z,19.15
2018-06-18T20:48:50.548Z,19.17
2018-06-18T20:49:50.518Z,19.13
2018-06-18T20:50:50.492Z,19.10
2018-06-18T20:51:50.477Z,19.10
2018-06-18T20:52:50.455Z,19.16
2018-06-18T20:53:50.419Z,19.15
2018-06-18T20:54:50.400Z,19.06
2018-06-18T20:55:50.380Z,19.13
2018-06-18T20:56:50.360Z,19.09
2018-06-18T20:57:50.333Z,19.19
2018-06-18T20:58:50.308Z,19.16
2018-06-18T20:59:50.285Z,19.15
2018-06-18T21:00:50.899Z,19.10
2018-06-18T21:01:50.239Z,19.19
2018-06-18T21:02:50.221Z,19.16
2018-06-18T21:03:50.195Z,19.15
2018-06-18T21:04:50.176Z,19.19
2018-06-18T21:05:50.186Z,19.12
2018-06-18T21:06:51.381Z,19.16
2018-06-18T21:07:50.124Z,19.20
2018-06-18T21:08:50.104Z,19.17
2018-06-18T21:09:50.061Z,19.09
2018-06-18T21:10:50.033Z,19.15
2018-06-18T21:11:50.113Z,19.17
2018-06-18T21:12:49.986Z,19.19
2018-06-18T21:13:49.966Z,19.00
2018-06-18T21:14:49.949Z,19.17
2018-06-18T21:15:49.917Z,19.20
2018-06-18T21:16:49.895Z,19.17
2018-06-18T21:17:49.864Z,19.16
2018-06-18T21:18:49.848Z,19.06
2018-06-18T21:19:49.827Z,19.15
2018-06-18T21:20:49.800Z,19.20
2018-06-18T21:21:49.781Z,19.12
2018-06-18T21:22:49.748Z,19.15
2018-06-18T21:23:49.738Z,19.12
2018-06-18T21:24:49.700Z,19.09
2018-06-18T21:25:49.686Z,19.05
2018-06-18T21:26:49.655Z,19.06
2018-06-18T21:27:49.635Z,19.13
2018-06-18T21:28:49.615Z,19.05
2018-06-18T21:29:49.590Z,19.13
2018-06-18T21:30:49.564Z,19.00
2018-06-18T21:31:49.548Z,19.13
2018-06-18T21:32:49.522Z,19.09
2018-06-18T21:33:49.496Z,19.12
2018-06-18T21:34:49.474Z,19.06
2018-06-18T21:35:49.449Z,19.09
2018-06-18T21:36:49.433Z,19.09
2018-06-18T21:37:49.401Z,19.09
2018-06-18T21:38:49.375Z,19.05
2018-06-18T21:39:49.355Z,18.96
2018-06-18T21:40:49.337Z,18.97
2018-06-18T21:41:49.305Z,19.00
2018-06-18T21:42:49.290Z,19.00
2018-06-18T21:43:49.258Z,19.02
2018-06-18T21:44:49.237Z,19.02
2018-06-18T21:45:49.218Z,18.93
2018-06-18T21:46:49.193Z,18.86
2018-06-18T21:47:49.170Z,18.89
2018-06-18T21:48:49.145Z,18.87
2018-06-18T21:49:49.120Z,18.86
2018-06-18T21:50:49.094Z,18.74
2018-06-18T21:51:49.075Z,18.75
2018-06-18T21:52:49.056Z,18.74
2018-06-18T21:53:49.029Z,18.81
2018-06-18T21:54:48.998Z,18.74
2018-06-18T21:55:48.984Z,18.71
2018-06-18T21:56:48.957Z,18.68
2018-06-18T21:57:48.938Z,18.71
2018-06-18T21:58:48.912Z,18.63
2018-06-18T21:59:48.892Z,18.54
2018-06-18T22:00:48.858Z,18.57
2018-06-18T22:01:48.843Z,18.44
2018-06-18T22:02:48.815Z,18.45
2018-06-18T22:03:48.794Z,18.41
2018-06-18T22:04:48.767Z,18.35
2018-06-18T22:05:48.745Z,18.42
2018-06-18T22:06:48.724Z,18.32
2018-06-18T22:07:48.698Z,18.41
2018-06-18T22:08:48.678Z,18.38
2018-06-18T22:09:48.655Z,18.39
2018-06-18T22:10:48.688Z,18.41
2018-06-18T22:11:48.598Z,18.39
2018-06-18T22:12:48.579Z,18.35
2018-06-18T22:13:48.559Z,18.34
2018-06-18T22:14:48.541Z,18.32
2018-06-18T22:15:48.507Z,18.42
2018-06-18T22:16:48.497Z,18.45
2018-06-18T22:17:48.463Z,18.44
2018-06-18T22:18:48.438Z,18.41
2018-06-18T22:19:48.412Z,18.42
2018-06-18T22:20:48.395Z,18.35
2018-06-18T22:21:48.370Z,18.45
2018-06-18T22:22:48.347Z,18.44
2018-06-18T22:23:48.322Z,18.45
2018-06-18T22:24:48.296Z,18.44
2018-06-18T22:25:48.277Z,18.45
2018-06-18T22:26:48.301Z,18.45
2018-06-18T22:27:48.231Z,18.41
2018-06-18T22:28:48.198Z,18.39
2018-06-18T22:29:48.190Z,18.41
2018-06-18T22:30:48.160Z,18.35
2018-06-18T22:31:48.130Z,18.32
2018-06-18T22:32:48.104Z,18.36
2018-06-18T22:33:48.091Z,18.38
2018-06-18T22:34:48.070Z,18.35
2018-06-18T22:35:48.033Z,18.36
2018-06-18T22:36:48.019Z,18.26
2018-06-18T22:37:47.985Z,18.34
2018-06-18T22:38:47.969Z,18.20
2018-06-18T22:39:47.945Z,18.21
2018-06-18T22:40:47.925Z,18.17
2018-06-18T22:41:47.893Z,18.17
2018-06-18T22:42:47.879Z,18.16
2018-06-18T22:43:47.845Z,18.14
2018-06-18T22:44:47.831Z,18.13
2018-06-18T22:45:47.809Z,18.08
2018-06-18T22:46:47.778Z,18.11
2018-06-18T22:47:47.755Z,18.11
2018-06-18T22:48:47.736Z,18.20
2018-06-18T22:49:47.709Z,18.11
2018-06-18T22:50:47.680Z,18.08
2018-06-18T22:51:47.664Z,18.13
2018-06-18T22:52:47.638Z,18.06
2018-06-18T22:53:47.614Z,18.06
2018-06-18T22:54:47.586Z,17.99
2018-06-18T22:55:47.568Z,17.95
2018-06-18T22:56:47.542Z,17.92
2018-06-18T22:57:47.517Z,17.98
2018-06-18T22:58:47.492Z,17.96
2018-06-18T22:59:47.474Z,17.88
2018-06-18T23:00:47.449Z,17.92
2018-06-18T23:01:47.431Z,17.94
2018-06-18T23:02:47.400Z,17.86
2018-06-18T23:03:47.373Z,17.87
2018-06-18T23:04:47.357Z,17.87
2018-06-18T23:05:47.331Z,17.81
2018-06-18T23:06:47.310Z,17.79
2018-06-18T23:07:47.276Z,17.81
2018-06-18T23:08:47.260Z,17.79
2018-06-18T23:09:47.229Z,17.74
2018-06-18T23:10:47.212Z,17.65
2018-06-18T23:11:47.184Z,17.58
2018-06-18T23:12:47.158Z,17.60
2018-06-18T23:13:47.144Z,17.60
2018-06-18T23:14:47.122Z,17.52
2018-06-18T23:15:47.088Z,17.58
2018-06-18T23:16:47.070Z,17.58
2018-06-18T23:17:47.051Z,17.55
2018-06-18T23:18:47.025Z,17.47
2018-06-18T23:19:46.996Z,17.46
2018-06-18T23:20:46.978Z,17.49
2018-06-18T23:21:46.961Z,17.46
2018-06-18T23:22:46.927Z,17.52
2018-06-18T23:23:46.917Z,17.49
2018-06-18T23:24:46.880Z,17.46
2018-06-18T23:25:46.852Z,17.43
2018-06-18T23:26:46.831Z,17.46
2018-06-18T23:27:46.810Z,17.42
2018-06-18T23:28:46.789Z,17.42
2018-06-18T23:29:46.761Z,17.40
2018-06-18T23:30:46.733Z,17.36
2018-06-18T23:31:46.718Z,17.47
2018-06-18T23:32:46.691Z,17.49
2018-06-18T23:33:46.666Z,17.43
2018-06-18T23:34:46.638Z,17.40
2018-06-18T23:35:46.617Z,17.39
2018-06-18T23:36:46.592Z,17.40
2018-06-18T23:37:46.576Z,17.35
2018-06-18T23:38:46.551Z,17.36
2018-06-18T23:39:46.523Z,17.39
2018-06-18T23:40:46.504Z,17.36
2018-06-18T23:41:46.479Z,17.35
2018-06-18T23:42:46.454Z,17.39
2018-06-18T23:43:46.428Z,17.35
2018-06-18T23:44:46.407Z,17.31
2018-06-18T23:45:46.386Z,17.31
2018-06-18T23:46:46.364Z,17.24
2018-06-18T23:47:46.328Z,17.25
2018-06-18T23:48:46.315Z,17.24
2018-06-18T23:49:46.281Z,17.22
2018-06-18T23:50:46.267Z,17.21
2018-06-18T23:51:46.233Z,17.17
2018-06-18T23:52:46.217Z,17.17
2018-06-18T23:53:46.194Z,17.18
2018-06-18T23:54:46.168Z,17.13
2018-06-18T23:55:46.146Z,17.13
2018-06-18T23:56:46.122Z,17.10
2018-06-18T23:57:46.103Z,17.10
2018-06-18T23:58:46.076Z,17.12
2018-06-18T23:59:46.045Z,17.13
